createdAt,value
2018-07-26T00:02:03.866Z,22.10
2018-07-26T00:04:32.871Z,22.10
2018-07-26T00:07:01.931Z,22.00
2018-07-26T00:09:30.922Z,21.80
2018-07-26T00:11:59.921Z,21.80
2018-07-26T00:14:29.057Z,21.80
2018-07-26T00:16:58.038Z,21.80
2018-07-26T00:19:27.077Z,21.90
2018-07-26T00:21:56.126Z,21.90
2018-07-26T00:24:25.107Z,21.80
2018-07-26T00:26:54.102Z,21.80
2018-07-26T00:29:23.107Z,21.70
2018-07-26T00:31:52.093Z,21.70
2018-07-26T00:34:21.108Z,21.60
2018-07-26T00:36:50.057Z,21.60
2018-07-26T00:39:19.051Z,21.60
2018-07-26T00:41:48.026Z,21.50
2018-07-26T00:44:17.027Z,21.40
2018-07-26T00:46:46.002Z,21.50
2018-07-26T00:49:14.993Z,21.30
2018-07-26T00:51:44.006Z,21.40
2018-07-26T00:54:13.083Z,21.30
2018-07-26T00:56:42.069Z,21.30
2018-07-26T00:59:11.079Z,21.20
2018-07-26T01:01:40.125Z,21.10
2018-07-26T01:04:09.149Z,21.00
2018-07-26T01:06:38.126Z,21.00
2018-07-26T01:09:09.007Z,20.90
2018-07-26T01:11:38.297Z,20.80
2018-07-26T01:14:07.335Z,20.80
2018-07-26T01:16:36.494Z,20.80
2018-07-26T01:19:05.722Z,20.80
2018-07-26T01:21:34.802Z,20.70
2018-07-26T01:24:03.982Z,20.60
2018-07-26T01:26:32.953Z,20.60
2018-07-26T01:29:01.978Z,20.50
2018-07-26T01:31:30.998Z,20.60
2018-07-26T01:34:00.064Z,20.60
2018-07-26T01:36:29.063Z,20.60
2018-07-26T01:38:58.022Z,20.60
2018-07-26T01:41:27.106Z,20.50
2018-07-26T01:44:07.450Z,20.50
2018-07-26T01:46:36.462Z,20.50
2018-07-26T01:49:05.506Z,20.40
2018-07-26T01:51:34.554Z,20.30
2018-07-26T01:54:03.562Z,20.20
2018-07-26T01:56:32.565Z,20.30
2018-07-26T01:59:01.549Z,20.30
2018-07-26T02:01:30.652Z,20.20
2018-07-26T02:03:59.652Z,20.20
2018-07-26T02:06:28.638Z,20.20
2018-07-26T02:08:57.606Z,20.10
2018-07-26T02:11:26.684Z,20.20
2018-07-26T02:13:55.706Z,20.10
2018-07-26T02:16:24.739Z,20.10
2018-07-26T02:18:53.789Z,19.90
2018-07-26T02:21:22.844Z,19.90
2018-07-26T02:23:51.871Z,19.90
2018-07-26T02:26:20.864Z,19.80
2018-07-26T02:28:49.856Z,19.80
2018-07-26T02:31:18.901Z,19.80
2018-07-26T02:33:47.862Z,19.70
2018-07-26T02:36:16.835Z,19.70
2018-07-26T02:38:45.855Z,19.60
2018-07-26T02:41:14.933Z,19.60
2018-07-26T02:43:43.904Z,19.70
2018-07-26T02:46:12.935Z,19.60
2018-07-26T02:48:41.902Z,19.50
2018-07-26T02:51:10.906Z,19.50
2018-07-26T02:53:40.706Z,19.50
2018-07-26T02:56:09.699Z,19.50
2018-07-26T02:58:38.680Z,19.40
2018-07-26T03:01:07.691Z,19.50
2018-07-26T03:03:36.696Z,19.50
2018-07-26T03:06:05.684Z,19.50
2018-07-26T03:08:34.647Z,19.40
2018-07-26T03:11:03.622Z,19.30
2018-07-26T03:13:32.595Z,19.30
2018-07-26T03:16:01.643Z,19.30
2018-07-26T03:18:30.774Z,19.30
2018-07-26T03:20:59.911Z,19.20
2018-07-26T03:23:28.834Z,19.20
2018-07-26T03:25:57.847Z,19.10
2018-07-26T03:28:26.946Z,19.20
2018-07-26T03:30:55.927Z,19.20
2018-07-26T03:33:24.932Z,19.10
2018-07-26T03:35:53.910Z,19.10
2018-07-26T03:38:22.903Z,19.10
2018-07-26T03:40:51.894Z,19.10
2018-07-26T03:43:20.936Z,19.00
2018-07-26T03:45:49.866Z,19.10
2018-07-26T03:48:18.821Z,19.20
2018-07-26T03:50:47.832Z,19.10
2018-07-26T03:53:16.814Z,19.10
2018-07-26T03:55:45.804Z,19.10
2018-07-26T03:58:14.828Z,19.20
2018-07-26T04:00:43.820Z,19.20
2018-07-26T04:03:12.840Z,19.10
2018-07-26T04:05:41.822Z,19.10
2018-07-26T04:08:10.807Z,19.00
2018-07-26T04:10:39.842Z,19.00
2018-07-26T04:13:09.387Z,19.00
2018-07-26T04:15:38.487Z,19.00
2018-07-26T04:18:07.498Z,19.00
2018-07-26T04:20:36.494Z,19.00
2018-07-26T04:23:05.572Z,19.00
2018-07-26T04:25:34.569Z,19.00
2018-07-26T04:28:04.586Z,19.10
2018-07-26T04:30:33.591Z,19.00
2018-07-26T04:33:02.708Z,19.10
2018-07-26T04:35:32.908Z,19.10
2018-07-26T04:38:01.888Z,19.10
2018-07-26T04:40:30.883Z,19.10
2018-07-26T04:42:59.931Z,19.20
2018-07-26T04:45:28.922Z,19.20
2018-07-26T04:47:57.907Z,19.20
2018-07-26T04:50:26.871Z,19.20
2018-07-26T04:52:55.872Z,19.30
2018-07-26T04:55:24.843Z,19.20
2018-07-26T04:57:53.952Z,19.30
2018-07-26T05:00:23.235Z,19.40
2018-07-26T05:02:52.233Z,19.40
2018-07-26T05:05:21.246Z,19.40
2018-07-26T05:07:50.212Z,19.50
2018-07-26T05:10:19.226Z,19.60
2018-07-26T05:12:48.236Z,19.70
2018-07-26T05:15:17.198Z,19.80
2018-07-26T05:17:46.194Z,19.80
2018-07-26T05:20:15.410Z,19.90
2018-07-26T05:22:44.402Z,19.90
2018-07-26T05:25:13.406Z,19.80
2018-07-26T05:27:42.479Z,19.80
2018-07-26T05:30:11.379Z,19.80
2018-07-26T05:32:40.474Z,20.00
2018-07-26T05:35:09.470Z,20.10
2018-07-26T05:37:38.468Z,20.20
2018-07-26T05:40:07.474Z,20.30
2018-07-26T05:42:36.447Z,20.30
2018-07-26T05:45:05.535Z,20.30
2018-07-26T05:47:34.533Z,20.30
2018-07-26T05:50:03.635Z,20.40
2018-07-26T05:52:32.618Z,20.50
2018-07-26T05:55:01.699Z,20.70
2018-07-26T05:57:30.806Z,20.90
2018-07-26T05:59:59.819Z,21.00
2018-07-26T06:02:28.926Z,21.00
2018-07-26T06:04:57.994Z,21.20
2018-07-26T06:07:27.035Z,21.30
2018-07-26T06:09:55.987Z,21.40
2018-07-26T06:12:24.978Z,21.50
2018-07-26T06:14:53.965Z,21.60
2018-07-26T06:17:23.007Z,21.70
2018-07-26T06:19:52.003Z,21.90
2018-07-26T06:22:20.998Z,22.00
2018-07-26T06:24:50.064Z,22.00
2018-07-26T06:27:19.110Z,22.10
2018-07-26T06:29:48.077Z,22.20
2018-07-26T06:32:17.257Z,22.30
2018-07-26T06:34:46.219Z,22.30
2018-07-26T06:37:15.342Z,22.40
2018-07-26T06:39:44.519Z,22.60
2018-07-26T06:42:13.582Z,22.60
2018-07-26T06:44:42.598Z,22.60
2018-07-26T06:47:11.790Z,22.90
2018-07-26T06:49:40.690Z,23.40
2018-07-26T06:52:09.825Z,23.70
2018-07-26T06:54:38.786Z,24.20
2018-07-26T06:57:08.278Z,25.20
2018-07-26T06:59:37.287Z,25.30
2018-07-26T07:02:06.266Z,25.50
2018-07-26T07:04:35.253Z,26.20
2018-07-26T07:07:04.255Z,26.70
2018-07-26T07:09:33.258Z,27.60
2018-07-26T07:12:02.319Z,28.60
2018-07-26T07:14:32.951Z,29.10
2018-07-26T07:17:02.039Z,30.30
2018-07-26T07:19:31.080Z,30.90
2018-07-26T07:22:00.079Z,31.40
2018-07-26T07:24:29.126Z,31.40
2018-07-26T07:26:58.113Z,31.70
2018-07-26T07:29:27.254Z,31.30
2018-07-26T07:31:56.217Z,31.20
2018-07-26T07:34:25.223Z,32.00
2018-07-26T07:36:54.231Z,33.10
2018-07-26T07:39:23.247Z,34.10
2018-07-26T07:41:52.395Z,34.20
2018-07-26T07:44:21.377Z,33.90
2018-07-26T07:46:50.387Z,34.20
2018-07-26T07:49:19.357Z,34.40
2018-07-26T07:51:48.327Z,35.30
2018-07-26T07:54:17.390Z,36.00
2018-07-26T07:56:46.372Z,35.80
2018-07-26T07:59:15.342Z,35.90
2018-07-26T08:01:44.491Z,36.20
2018-07-26T08:04:13.438Z,36.30
2018-07-26T08:06:42.514Z,36.00
2018-07-26T08:09:12.178Z,36.50
2018-07-26T08:11:41.255Z,36.30
2018-07-26T08:14:10.446Z,36.20
2018-07-26T08:16:39.419Z,35.70
2018-07-26T08:19:08.393Z,35.70
2018-07-26T08:21:37.492Z,35.80
2018-07-26T08:24:06.498Z,35.80
2018-07-26T08:26:35.525Z,35.00
2018-07-26T08:29:04.598Z,34.90
2018-07-26T08:31:33.574Z,34.80
2018-07-26T08:34:02.607Z,34.10
2018-07-26T08:36:31.566Z,34.10
2018-07-26T08:39:00.541Z,34.50
2018-07-26T08:41:29.546Z,35.10
2018-07-26T08:43:58.531Z,35.90
2018-07-26T08:46:27.526Z,36.50
2018-07-26T08:48:56.526Z,37.50
2018-07-26T08:51:26.026Z,37.80
2018-07-26T08:53:55.214Z,37.70
2018-07-26T08:56:24.183Z,37.70
2018-07-26T08:58:53.158Z,37.60
2018-07-26T09:01:22.166Z,37.30
2018-07-26T09:03:51.210Z,37.00
2018-07-26T09:06:20.202Z,36.50
2018-07-26T09:08:49.185Z,36.00
2018-07-26T09:11:18.416Z,35.30
2018-07-26T09:13:47.428Z,35.50
2018-07-26T09:16:16.358Z,34.90
2018-07-26T09:18:45.348Z,34.00
2018-07-26T09:21:14.324Z,33.10
2018-07-26T09:23:43.294Z,32.70
2018-07-26T09:26:12.368Z,32.60
2018-07-26T09:28:41.342Z,32.60
2018-07-26T09:31:10.325Z,32.50
2018-07-26T09:33:39.360Z,32.80
2018-07-26T09:36:15.595Z,32.80
2018-07-26T09:38:44.570Z,32.50
2018-07-26T09:41:14.525Z,32.10
2018-07-26T09:43:43.963Z,31.80
2018-07-26T09:46:13.285Z,31.60
2018-07-26T09:48:42.415Z,31.60
2018-07-26T09:51:11.386Z,31.50
2018-07-26T09:53:40.428Z,31.40
2018-07-26T09:56:09.587Z,31.00
2018-07-26T09:58:38.554Z,30.60
2018-07-26T10:01:12.889Z,30.50
2018-07-26T10:03:41.990Z,30.50
2018-07-26T10:06:10.989Z,30.70
2018-07-26T10:08:40.007Z,30.90
2018-07-26T10:11:09.127Z,31.20
2018-07-26T10:13:38.140Z,31.10
2018-07-26T10:16:07.180Z,30.90
2018-07-26T10:18:36.156Z,30.60
2018-07-26T10:21:05.141Z,30.30
2018-07-26T10:23:34.118Z,30.20
2018-07-26T10:26:03.113Z,30.20
2018-07-26T10:28:32.287Z,30.10
2018-07-26T10:31:01.295Z,30.10
2018-07-26T10:33:30.287Z,30.10
2018-07-26T10:35:59.386Z,30.10
2018-07-26T10:38:28.530Z,30.30
2018-07-26T10:40:58.015Z,30.40
2018-07-26T10:43:26.963Z,30.50
2018-07-26T10:45:55.969Z,30.60
2018-07-26T10:48:25.602Z,30.50
2018-07-26T10:50:54.568Z,30.40
2018-07-26T10:53:23.638Z,30.40
2018-07-26T10:55:52.594Z,30.40
2018-07-26T10:58:21.580Z,30.50
2018-07-26T11:00:50.599Z,30.60
2018-07-26T11:03:19.875Z,30.60
2018-07-26T11:05:48.858Z,30.50
2018-07-26T11:08:17.959Z,30.40
2018-07-26T11:10:47.043Z,30.10
2018-07-26T11:13:16.142Z,29.90
2018-07-26T11:15:45.111Z,29.90
2018-07-26T11:18:14.100Z,29.90
2018-07-26T11:20:43.128Z,29.90
2018-07-26T11:23:12.126Z,30.00
2018-07-26T11:25:41.225Z,30.20
2018-07-26T11:28:10.108Z,30.40
2018-07-26T11:30:39.121Z,30.30
2018-07-26T11:33:08.091Z,30.20
2018-07-26T11:35:37.085Z,30.20
2018-07-26T11:38:06.329Z,30.10
2018-07-26T11:40:35.344Z,30.30
2018-07-26T11:43:04.354Z,30.30
2018-07-26T11:45:33.360Z,30.30
2018-07-26T11:48:02.325Z,30.20
2018-07-26T11:50:31.317Z,30.10
2018-07-26T11:53:00.310Z,30.00
2018-07-26T11:55:29.518Z,30.10
2018-07-26T11:57:58.582Z,30.30
2018-07-26T12:00:27.553Z,30.40
2018-07-26T12:02:56.518Z,30.50
2018-07-26T12:05:25.495Z,30.60
2018-07-26T12:07:54.538Z,31.00
2018-07-26T12:10:23.514Z,31.10
2018-07-26T12:12:52.586Z,31.30
2018-07-26T12:15:21.598Z,31.30
2018-07-26T12:17:50.698Z,31.10
2018-07-26T12:20:19.722Z,31.00
2018-07-26T12:22:48.698Z,31.00
2018-07-26T12:25:17.670Z,31.00
2018-07-26T12:27:47.130Z,31.40
2018-07-26T12:30:16.151Z,31.70
2018-07-26T12:32:45.122Z,32.00
2018-07-26T12:35:14.111Z,31.90
2018-07-26T12:37:43.150Z,32.00
2018-07-26T12:40:12.326Z,32.10
2018-07-26T12:42:41.306Z,32.50
2018-07-26T12:45:10.338Z,32.80
2018-07-26T12:47:39.450Z,32.80
2018-07-26T12:50:08.410Z,32.50
2018-07-26T12:52:37.374Z,32.70
2018-07-26T12:55:06.479Z,32.70
2018-07-26T12:57:35.486Z,32.60
2018-07-26T13:00:05.793Z,32.70
2018-07-26T13:02:34.795Z,32.50
2018-07-26T13:05:03.922Z,32.10
2018-07-26T13:07:33.002Z,32.50
2018-07-26T13:10:01.995Z,32.70
2018-07-26T13:12:32.077Z,32.90
2018-07-26T13:15:01.031Z,33.20
2018-07-26T13:17:30.067Z,33.70
2018-07-26T13:19:59.052Z,33.70
2018-07-26T13:22:28.288Z,33.90
2018-07-26T13:24:57.282Z,33.90
2018-07-26T13:27:26.291Z,33.50
2018-07-26T13:29:55.254Z,33.50
2018-07-26T13:32:24.282Z,33.10
2018-07-26T13:34:53.330Z,33.70
2018-07-26T13:37:22.359Z,35.50
2018-07-26T13:39:51.354Z,36.60
2018-07-26T13:42:20.369Z,36.90
2018-07-26T13:44:49.411Z,37.40
2018-07-26T13:47:18.435Z,37.90
2018-07-26T13:49:47.413Z,37.70
2018-07-26T13:52:16.415Z,38.20
2018-07-26T13:54:45.392Z,38.60
2018-07-26T13:57:14.370Z,38.70
2018-07-26T13:59:43.362Z,38.60
2018-07-26T14:02:12.366Z,39.10
2018-07-26T14:04:41.338Z,39.50
2018-07-26T14:07:10.311Z,39.30
2018-07-26T14:09:40.462Z,40.20
2018-07-26T14:12:09.795Z,41.00
2018-07-26T14:14:38.794Z,41.50
2018-07-26T14:17:09.049Z,40.90
2018-07-26T14:19:38.070Z,39.60
2018-07-26T14:24:44.398Z,38.40
2018-07-26T14:27:13.437Z,39.50
2018-07-26T14:29:42.682Z,40.10
2018-07-26T14:32:11.758Z,40.50
2018-07-26T14:34:40.795Z,40.80
2018-07-26T14:37:09.871Z,41.70
2018-07-26T14:39:38.975Z,42.70
2018-07-26T14:42:08.001Z,42.90
2018-07-26T14:44:37.018Z,42.60
2018-07-26T14:47:06.089Z,42.70
2018-07-26T14:49:35.085Z,42.80
2018-07-26T14:52:04.092Z,42.50
2018-07-26T14:54:33.138Z,41.40
2018-07-26T14:57:02.074Z,40.10
2018-07-26T14:59:31.074Z,39.60
2018-07-26T15:02:00.176Z,40.50
2018-07-26T15:04:29.198Z,41.20
2018-07-26T15:06:58.162Z,41.10
2018-07-26T15:09:27.154Z,41.60
2018-07-26T15:14:21.362Z,41.60
2018-07-26T15:16:50.439Z,42.50
2018-07-26T15:19:19.430Z,43.20
2018-07-26T15:21:48.463Z,43.40
2018-07-26T15:24:17.430Z,42.80
2018-07-26T15:26:46.411Z,41.90
2018-07-26T15:29:15.402Z,42.20
2018-07-26T15:31:44.494Z,42.30
2018-07-26T15:34:13.471Z,42.10
2018-07-26T15:36:42.498Z,42.20
2018-07-26T15:39:11.517Z,42.40
2018-07-26T15:41:44.665Z,40.70
2018-07-26T15:44:14.987Z,39.40
2018-07-26T15:46:44.126Z,38.30
2018-07-26T15:49:13.114Z,37.70
2018-07-26T15:51:42.189Z,36.80
2018-07-26T15:54:11.174Z,36.20
2018-07-26T15:56:40.306Z,35.90
2018-07-26T15:59:09.342Z,35.50
2018-07-26T16:01:38.342Z,36.20
2018-07-26T16:04:07.387Z,37.70
2018-07-26T16:06:36.430Z,38.90
2018-07-26T16:11:35.859Z,40.90
2018-07-26T16:14:04.846Z,41.10
2018-07-26T16:16:33.850Z,40.90
2018-07-26T16:19:03.139Z,41.30
2018-07-26T16:24:00.726Z,41.20
2018-07-26T16:26:29.766Z,41.30
2018-07-26T16:28:58.768Z,40.90
2018-07-26T16:31:27.781Z,40.30
2018-07-26T16:33:56.897Z,39.80
2018-07-26T16:36:25.807Z,39.70
2018-07-26T16:38:54.779Z,38.90
2018-07-26T16:41:23.999Z,37.50
2018-07-26T16:43:52.978Z,36.20
2018-07-26T16:46:22.174Z,35.40
2018-07-26T16:48:51.350Z,34.70
2018-07-26T16:51:20.366Z,34.30
2018-07-26T16:56:18.467Z,34.00
2018-07-26T16:58:47.566Z,33.80
2018-07-26T17:01:16.516Z,33.90
2018-07-26T17:03:45.596Z,34.00
2018-07-26T17:06:14.606Z,34.10
2018-07-26T17:08:43.698Z,34.20
2018-07-26T17:11:12.733Z,34.30
2018-07-26T17:13:41.734Z,34.30
2018-07-26T17:16:10.779Z,33.80
2018-07-26T17:18:39.872Z,33.70
2018-07-26T17:21:09.547Z,33.50
2018-07-26T17:23:39.052Z,33.30
2018-07-26T17:26:08.015Z,33.20
2018-07-26T17:28:37.008Z,33.10
2018-07-26T17:31:06.022Z,32.90
2018-07-26T17:33:35.074Z,32.70
2018-07-26T17:36:04.098Z,32.50
2018-07-26T17:38:33.178Z,32.40
2018-07-26T17:41:03.998Z,32.30
2018-07-26T17:43:32.930Z,32.30
2018-07-26T17:46:01.903Z,32.20
2018-07-26T17:48:31.297Z,32.20
2018-07-26T17:51:00.627Z,32.10
2018-07-26T17:53:29.702Z,32.00
2018-07-26T17:55:58.712Z,31.90
2018-07-26T17:58:27.787Z,31.70
2018-07-26T18:00:57.153Z,31.70
2018-07-26T18:03:27.212Z,31.60
2018-07-26T18:05:56.248Z,31.50
2018-07-26T18:08:25.375Z,31.40
2018-07-26T18:10:54.515Z,31.30
2018-07-26T18:13:23.565Z,31.20
2018-07-26T18:15:53.504Z,31.20
2018-07-26T18:18:22.540Z,31.10
2018-07-26T18:20:51.514Z,31.00
2018-07-26T18:23:20.579Z,30.90
2018-07-26T18:25:49.554Z,30.90
2018-07-26T18:28:18.614Z,30.90
2018-07-26T18:30:47.650Z,30.80
2018-07-26T18:33:17.236Z,30.60
2018-07-26T18:35:48.166Z,30.60
2018-07-26T18:38:17.200Z,30.50
2018-07-26T18:40:46.607Z,30.40
2018-07-26T18:43:16.406Z,30.40
2018-07-26T18:45:45.526Z,30.30
2018-07-26T18:48:14.526Z,30.20
2018-07-26T18:50:43.527Z,30.10
2018-07-26T18:53:12.570Z,30.10
2018-07-26T18:55:41.585Z,30.00
2018-07-26T18:58:16.978Z,30.00
2018-07-26T19:00:46.129Z,29.90
2018-07-26T19:03:15.414Z,29.90
2018-07-26T19:05:44.499Z,29.80
2018-07-26T19:08:14.031Z,29.80
2018-07-26T19:10:43.237Z,29.70
2018-07-26T19:13:12.298Z,29.70
2018-07-26T19:15:41.421Z,29.60
2018-07-26T19:18:10.578Z,29.60
2018-07-26T19:20:39.858Z,29.60
2018-07-26T19:23:10.420Z,29.40
2018-07-26T19:25:40.055Z,29.40
2018-07-26T19:28:09.930Z,29.30
2018-07-26T19:30:40.587Z,29.10
2018-07-26T19:33:10.136Z,29.10
2018-07-26T19:35:39.102Z,29.10
2018-07-26T19:38:08.111Z,28.90
2018-07-26T19:40:37.215Z,28.80
2018-07-26T19:43:06.536Z,28.80
2018-07-26T19:45:44.721Z,28.80
2018-07-26T19:48:13.883Z,28.80
2018-07-26T19:50:42.976Z,28.70
2018-07-26T19:53:12.018Z,28.70
2018-07-26T19:55:41.339Z,28.60
2018-07-26T19:58:10.319Z,28.50
2018-07-26T20:00:39.294Z,28.50
2018-07-26T20:03:09.030Z,28.40
2018-07-26T20:05:38.099Z,28.40
2018-07-26T20:08:07.614Z,28.30
2018-07-26T20:10:36.594Z,28.20
2018-07-26T20:13:05.638Z,28.10
2018-07-26T20:15:34.689Z,28.10
2018-07-26T20:18:03.708Z,28.10
2018-07-26T20:20:32.701Z,28.00
2018-07-26T20:23:01.755Z,28.00
2018-07-26T20:25:30.802Z,27.90
2018-07-26T20:27:59.813Z,27.90
2018-07-26T20:30:29.237Z,27.90
2018-07-26T20:32:58.235Z,27.90
2018-07-26T20:35:27.187Z,27.80
2018-07-26T20:37:56.174Z,27.80
2018-07-26T20:40:25.278Z,27.80
2018-07-26T20:42:54.357Z,27.80
2018-07-26T20:45:23.988Z,27.80
2018-07-26T20:47:53.006Z,27.70
2018-07-26T20:50:22.076Z,27.70
2018-07-26T20:52:51.172Z,27.60
2018-07-26T20:55:21.162Z,27.70
2018-07-26T20:57:50.222Z,27.60
2018-07-26T21:00:19.645Z,27.60
2018-07-26T21:02:48.654Z,27.50
2018-07-26T21:05:17.940Z,27.50
2018-07-26T21:07:47.047Z,27.50
2018-07-26T21:10:15.987Z,27.40
2018-07-26T21:12:45.979Z,27.30
2018-07-26T21:15:14.991Z,27.30
2018-07-26T21:17:44.027Z,27.30
2018-07-26T21:20:13.039Z,27.20
2018-07-26T21:22:42.318Z,27.10
2018-07-26T21:25:11.376Z,27.10
2018-07-26T21:27:40.377Z,27.10
2018-07-26T21:30:09.374Z,27.00
2018-07-26T21:32:38.434Z,26.80
2018-07-26T21:35:07.659Z,26.60
2018-07-26T21:37:36.736Z,26.50
2018-07-26T21:40:06.322Z,26.30
2018-07-26T21:42:35.534Z,26.10
2018-07-26T21:45:05.060Z,26.10
2018-07-26T21:47:34.019Z,25.90
2018-07-26T21:50:03.035Z,25.80
2018-07-26T21:55:04.286Z,25.80
2018-07-26T21:57:33.249Z,25.60
2018-07-26T22:00:03.599Z,25.40
2018-07-26T22:02:32.714Z,25.30
2018-07-26T22:05:01.607Z,25.20
2018-07-26T22:07:30.584Z,25.20
2018-07-26T22:09:59.567Z,25.10
2018-07-26T22:12:28.548Z,25.10
2018-07-26T22:14:57.551Z,24.90
2018-07-26T22:17:26.644Z,24.90
2018-07-26T22:19:55.620Z,24.70
2018-07-26T22:22:24.630Z,24.60
2018-07-26T22:24:53.667Z,24.50
2018-07-26T22:27:22.630Z,24.40
2018-07-26T22:29:51.624Z,24.30
2018-07-26T22:32:20.628Z,24.30
2018-07-26T22:34:49.595Z,24.30
2018-07-26T22:37:18.549Z,24.20
2018-07-26T22:39:47.629Z,24.10
2018-07-26T22:42:16.582Z,24.00
2018-07-26T22:44:45.678Z,23.90
2018-07-26T22:47:14.634Z,23.90
2018-07-26T22:49:43.618Z,23.90
2018-07-26T22:52:12.634Z,23.80
2018-07-26T22:54:41.609Z,23.80
2018-07-26T22:57:10.582Z,23.60
2018-07-26T22:59:39.538Z,23.60
2018-07-26T23:02:08.590Z,23.50
2018-07-26T23:04:37.614Z,23.50
2018-07-26T23:07:06.790Z,23.40
2018-07-26T23:09:35.847Z,23.40
2018-07-26T23:12:04.834Z,23.40
2018-07-26T23:14:33.951Z,23.30
2018-07-26T23:17:02.916Z,23.30
2018-07-26T23:19:32.040Z,23.30
2018-07-26T23:22:01.006Z,23.20
2018-07-26T23:24:29.969Z,23.10
2018-07-26T23:26:58.973Z,23.10
2018-07-26T23:29:28.053Z,23.10
2018-07-26T23:31:57.010Z,23.00
2018-07-26T23:36:53.131Z,22.90
2018-07-26T23:39:22.116Z,22.70
2018-07-26T23:41:51.087Z,22.70
2018-07-26T23:44:20.050Z,22.60
2018-07-26T23:46:49.070Z,22.60
2018-07-26T23:49:18.014Z,22.60
2018-07-26T23:51:46.969Z,22.60
2018-07-26T23:54:15.988Z,22.60
2018-07-26T23:56:44.948Z,22.50
2018-07-26T23:59:13.906Z,22.60
